sensor_id;sensor_type;location;lat;lon;timestamp;pressure;altitude;pressure_sealevel;temperature;humidity
60087;BME280;45960;53.630;55.972;2023-04-08T00:00:29;101517.44;;;-0.09;34.57
60087;BME280;45960;53.630;55.972;2023-04-08T00:01:30;101527.06;;;-0.10;34.61
60087;BME280;45960;53.630;55.972;2023-04-08T00:02:31;101528.81;;;-0.09;34.78
60087;BME280;45960;53.630;55.972;2023-04-08T00:03:32;101529.69;;;-0.11;34.81
60087;BME280;45960;53.630;55.972;2023-04-08T00:04:33;101519.22;;;-0.16;34.90
60087;BME280;45960;53.630;55.972;2023-04-08T00:05:34;101520.09;;;-0.15;35.01
60087;BME280;45960;53.630;55.972;2023-04-08T00:06:35;101519.19;;;-0.17;35.21
60087;BME280;45960;53.630;55.972;2023-04-08T00:07:37;101527.09;;;-0.22;35.17
60087;BME280;45960;53.630;55.972;2023-04-08T00:08:38;101530.59;;;-0.23;35.24
60087;BME280;45960;53.630;55.972;2023-04-08T00:09:39;101529.72;;;-0.27;35.43
60087;BME280;45960;53.630;55.972;2023-04-08T00:10:40;101527.09;;;-0.28;35.75
60087;BME280;45960;53.630;55.972;2023-04-08T00:11:41;101531.47;;;-0.29;35.92
60087;BME280;45960;53.630;55.972;2023-04-08T00:12:43;101526.22;;;-0.30;36.26
60087;BME280;45960;53.630;55.972;2023-04-08T00:13:44;101531.47;;;-0.32;36.41
60087;BME280;45960;53.630;55.972;2023-04-08T00:14:45;101529.72;;;-0.33;36.59
60087;BME280;45960;53.630;55.972;2023-04-08T00:15:46;101526.22;;;-0.35;36.54
60087;BME280;45960;53.630;55.972;2023-04-08T00:16:47;101529.75;;;-0.36;36.79
60087;BME280;45960;53.630;55.972;2023-04-08T00:17:48;101530.59;;;-0.40;36.89
60087;BME280;45960;53.630;55.972;2023-04-08T00:18:49;101534.09;;;-0.42;37.00
60087;BME280;45960;53.630;55.972;2023-04-08T00:19:50;101528.84;;;-0.44;37.26
60087;BME280;45960;53.630;55.972;2023-04-08T00:20:51;101535.84;;;-0.46;37.57
60087;BME280;45960;53.630;55.972;2023-04-08T00:21:52;101528.84;;;-0.52;37.73
60087;BME280;45960;53.630;55.972;2023-04-08T00:22:53;101537.63;;;-0.50;37.92
60087;BME280;45960;53.630;55.972;2023-04-08T00:23:54;101539.34;;;-0.52;38.08
60087;BME280;45960;53.630;55.972;2023-04-08T00:24:57;101534.97;;;-0.57;38.49
60087;BME280;45960;53.630;55.972;2023-04-08T00:25:58;101533.25;;;-0.61;38.54
60087;BME280;45960;53.630;55.972;2023-04-08T00:26:59;101530.63;;;-0.61;38.81
60087;BME280;45960;53.630;55.972;2023-04-08T00:28:00;101531.47;;;-0.64;38.67
60087;BME280;45960;53.630;55.972;2023-04-08T00:29:02;101533.22;;;-0.64;38.80
60087;BME280;45960;53.630;55.972;2023-04-08T00:30:03;101532.34;;;-0.65;38.87
60087;BME280;45960;53.630;55.972;2023-04-08T00:31:04;101527.97;;;-0.69;38.84
60087;BME280;45960;53.630;55.972;2023-04-08T00:32:05;101531.47;;;-0.69;38.75
60087;BME280;45960;53.630;55.972;2023-04-08T00:33:07;101532.34;;;-0.70;38.82
60087;BME280;45960;53.630;55.972;2023-04-08T00:34:08;101529.72;;;-0.73;38.92
60087;BME280;45960;53.630;55.972;2023-04-08T00:35:09;101536.72;;;-0.72;38.94
60087;BME280;45960;53.630;55.972;2023-04-08T00:36:10;101534.97;;;-0.73;38.87
60087;BME280;45960;53.630;55.972;2023-04-08T00:37:11;101536.72;;;-0.75;39.18
60087;BME280;45960;53.630;55.972;2023-04-08T00:38:12;101536.69;;;-0.76;39.28
60087;BME280;45960;53.630;55.972;2023-04-08T00:39:13;101538.44;;;-0.77;39.08
60087;BME280;45960;53.630;55.972;2023-04-08T00:40:15;101535.84;;;-0.78;39.16
60087;BME280;45960;53.630;55.972;2023-04-08T00:41:16;101535.81;;;-0.81;39.27
60087;BME280;45960;53.630;55.972;2023-04-08T00:42:17;101534.94;;;-0.82;39.14
60087;BME280;45960;53.630;55.972;2023-04-08T00:43:18;101529.69;;;-0.82;39.24
60087;BME280;45960;53.630;55.972;2023-04-08T00:44:20;101538.44;;;-0.83;39.04
60087;BME280;45960;53.630;55.972;2023-04-08T00:45:21;101527.94;;;-0.86;38.99
60087;BME280;45960;53.630;55.972;2023-04-08T00:46:23;101534.06;;;-0.85;39.20
60087;BME280;45960;53.630;55.972;2023-04-08T00:47:24;101536.66;;;-0.87;39.25
60087;BME280;45960;53.630;55.972;2023-04-08T00:48:25;101534.94;;;-0.88;39.32
60087;BME280;45960;53.630;55.972;2023-04-08T00:49:26;101531.44;;;-0.90;39.45
60087;BME280;45960;53.630;55.972;2023-04-08T00:50:27;101538.44;;;-0.92;39.34
60087;BME280;45960;53.630;55.972;2023-04-08T00:51:29;101531.41;;;-0.93;39.48
60087;BME280;45960;53.630;55.972;2023-04-08T00:52:31;101527.03;;;-0.96;39.63
60087;BME280;45960;53.630;55.972;2023-04-08T00:53:32;101526.16;;;-1.02;39.60
60087;BME280;45960;53.630;55.972;2023-04-08T00:54:33;101527.91;;;-0.98;39.88
60087;BME280;45960;53.630;55.972;2023-04-08T00:55:36;101529.66;;;-1.05;39.59
60087;BME280;45960;53.630;55.972;2023-04-08T00:56:37;101529.66;;;-1.03;39.70
60087;BME280;45960;53.630;55.972;2023-04-08T00:57:38;101532.28;;;-1.08;39.96
60087;BME280;45960;53.630;55.972;2023-04-08T00:58:40;101534.91;;;-1.06;40.07
60087;BME280;45960;53.630;55.972;2023-04-08T00:59:41;101534.91;;;-1.08;39.97
60087;BME280;45960;53.630;55.972;2023-04-08T01:00:59;101534.88;;;-1.11;40.12
60087;BME280;45960;53.630;55.972;2023-04-08T01:04:04;101532.25;;;-1.14;40.01
60087;BME280;45960;53.630;55.972;2023-04-08T01:05:06;101539.22;;;-1.18;40.29
60087;BME280;45960;53.630;55.972;2023-04-08T01:07:33;101540.09;;;-1.22;40.45
60087;BME280;45960;53.630;55.972;2023-04-08T01:08:37;101541.81;;;-1.24;40.44
60087;BME280;45960;53.630;55.972;2023-04-08T01:09:44;101533.97;;;-1.25;40.38
60087;BME280;45960;53.630;55.972;2023-04-08T01:10:48;101527.81;;;-1.29;40.44
60087;BME280;45960;53.630;55.972;2023-04-08T01:11:52;101545.34;;;-1.25;40.34
60087;BME280;45960;53.630;55.972;2023-04-08T01:12:56;101540.06;;;-1.28;40.27
60087;BME280;45960;53.630;55.972;2023-04-08T01:13:58;101541.81;;;-1.30;40.04
60087;BME280;45960;53.630;55.972;2023-04-08T01:15:05;101531.31;;;-1.33;39.85
60087;BME280;45960;53.630;55.972;2023-04-08T01:16:09;101540.06;;;-1.34;39.69
60087;BME280;45960;53.630;55.972;2023-04-08T01:17:12;101539.16;;;-1.36;39.37
60087;BME280;45960;53.630;55.972;2023-04-08T01:18:15;101537.41;;;-1.36;39.28
60087;BME280;45960;53.630;55.972;2023-04-08T01:19:26;101541.78;;;-1.35;39.08
60087;BME280;45960;53.630;55.972;2023-04-08T01:20:28;101520.81;;;-1.42;38.96
60087;BME280;45960;53.630;55.972;2023-04-08T01:21:31;101541.78;;;-1.36;38.72
60087;BME280;45960;53.630;55.972;2023-04-08T01:22:57;101540.06;;;-1.37;38.53
60087;BME280;45960;53.630;55.972;2023-04-08T01:24:12;101539.16;;;-1.38;38.49
60087;BME280;45960;53.630;55.972;2023-04-08T01:25:20;101540.00;;;-1.40;38.22
60087;BME280;45960;53.630;55.972;2023-04-08T01:26:24;101537.41;;;-1.42;37.92
60087;BME280;45960;53.630;55.972;2023-04-08T01:27:27;101547.03;;;-1.39;37.89
60087;BME280;45960;53.630;55.972;2023-04-08T01:28:31;101540.00;;;-1.43;37.86
60087;BME280;45960;53.630;55.972;2023-04-08T01:29:34;101540.00;;;-1.40;37.75
60087;BME280;45960;53.630;55.972;2023-04-08T01:30:40;101543.50;;;-1.41;37.76
60087;BME280;45960;53.630;55.972;2023-04-08T01:31:42;101550.50;;;-1.40;37.23
60087;BME280;45960;53.630;55.972;2023-04-08T01:32:45;101539.16;;;-1.41;37.79
60087;BME280;45960;53.630;55.972;2023-04-08T01:33:48;101545.25;;;-1.40;37.89
60087;BME280;45960;53.630;55.972;2023-04-08T01:34:51;101547.88;;;-1.40;37.97
60087;BME280;45960;53.630;55.972;2023-04-08T01:35:55;101544.38;;;-1.41;38.01
60087;BME280;45960;53.630;55.972;2023-04-08T01:36:57;101548.75;;;-1.38;37.96
60087;BME280;45960;53.630;55.972;2023-04-08T01:37:58;101544.41;;;-1.39;38.02
60087;BME280;45960;53.630;55.972;2023-04-08T01:39:01;101548.78;;;-1.40;38.12
60087;BME280;45960;53.630;55.972;2023-04-08T01:40:06;101547.88;;;-1.40;38.01
60087;BME280;45960;53.630;55.972;2023-04-08T01:41:11;101554.00;;;-1.41;38.35
60087;BME280;45960;53.630;55.972;2023-04-08T01:42:12;101549.63;;;-1.41;38.20
60087;BME280;45960;53.630;55.972;2023-04-08T01:43:16;101550.50;;;-1.40;38.14
60087;BME280;45960;53.630;55.972;2023-04-08T01:44:17;101549.63;;;-1.41;38.07
60087;BME280;45960;53.630;55.972;2023-04-08T01:45:20;101548.75;;;-1.41;37.85
60087;BME280;45960;53.630;55.972;2023-04-08T01:46:22;101546.13;;;-1.41;37.80
60087;BME280;45960;53.630;55.972;2023-04-08T01:47:24;101562.75;;;-1.39;37.45
60087;BME280;45960;53.630;55.972;2023-04-08T01:48:26;101554.00;;;-1.41;37.12
60087;BME280;45960;53.630;55.972;2023-04-08T01:49:29;101554.00;;;-1.38;37.33
60087;BME280;45960;53.630;55.972;2023-04-08T01:50:30;101554.00;;;-1.38;37.44
60087;BME280;45960;53.630;55.972;2023-04-08T01:51:32;101559.28;;;-1.37;37.62
60087;BME280;45960;53.630;55.972;2023-04-08T01:52:36;101555.78;;;-1.37;37.55
60087;BME280;45960;53.630;55.972;2023-04-08T01:53:38;101554.03;;;-1.37;37.49
60087;BME280;45960;53.630;55.972;2023-04-08T01:54:39;101561.88;;;-1.35;37.35
60087;BME280;45960;53.630;55.972;2023-04-08T01:55:41;101554.03;;;-1.35;37.28
60087;BME280;45960;53.630;55.972;2023-04-08T01:56:43;101561.03;;;-1.34;37.53
60087;BME280;45960;53.630;55.972;2023-04-08T01:57:51;101561.03;;;-1.31;37.98
60087;BME280;45960;53.630;55.972;2023-04-08T01:58:53;101561.03;;;-1.34;38.08
60087;BME280;45960;53.630;55.972;2023-04-08T02:00:00;101562.78;;;-1.30;38.02
60087;BME280;45960;53.630;55.972;2023-04-08T02:01:10;101555.81;;;-1.31;38.05
60087;BME280;45960;53.630;55.972;2023-04-08T02:02:14;101561.03;;;-1.31;37.99
60087;BME280;45960;53.630;55.972;2023-04-08T02:03:17;101564.53;;;-1.32;37.92
60087;BME280;45960;53.630;55.972;2023-04-08T02:04:20;101555.78;;;-1.34;37.81
60087;BME280;45960;53.630;55.972;2023-04-08T02:05:21;101559.28;;;-1.29;37.20
60087;BME280;45960;53.630;55.972;2023-04-08T02:06:24;101568.03;;;-1.27;37.10
60087;BME280;45960;53.630;55.972;2023-04-08T02:07:26;101570.66;;;-1.27;36.96
60087;BME280;45960;53.630;55.972;2023-04-08T02:08:28;101575.94;;;-1.25;36.69
60087;BME280;45960;53.630;55.972;2023-04-08T02:09:28;101567.19;;;-1.24;36.96
60087;BME280;45960;53.630;55.972;2023-04-08T02:10:31;101565.44;;;-1.24;36.98
60087;BME280;45960;53.630;55.972;2023-04-08T02:11:32;101570.69;;;-1.22;36.96
60087;BME280;45960;53.630;55.972;2023-04-08T02:12:33;101567.19;;;-1.21;36.97
60087;BME280;45960;53.630;55.972;2023-04-08T02:13:34;101574.19;;;-1.19;36.91
60087;BME280;45960;53.630;55.972;2023-04-08T02:14:36;101575.94;;;-1.16;36.91
60087;BME280;45960;53.630;55.972;2023-04-08T02:15:50;101570.72;;;-1.16;36.88
60087;BME280;45960;53.630;55.972;2023-04-08T02:17:03;101573.34;;;-1.13;36.79
60087;BME280;45960;53.630;55.972;2023-04-08T02:18:15;101576.84;;;-1.14;36.84
60087;BME280;45960;53.630;55.972;2023-04-08T02:19:28;101581.22;;;-1.11;36.77
60087;BME280;45960;53.630;55.972;2023-04-08T02:21:16;101578.59;;;-1.11;36.93
60087;BME280;45960;53.630;55.972;2023-04-08T02:22:26;101571.59;;;-1.13;37.21
60087;BME280;45960;53.630;55.972;2023-04-08T02:23:32;101575.97;;;-1.13;36.93
60087;BME280;45960;53.630;55.972;2023-04-08T02:24:35;101573.34;;;-1.11;36.75
60087;BME280;45960;53.630;55.972;2023-04-08T02:25:39;101578.59;;;-1.10;36.78
60087;BME280;45960;53.630;55.972;2023-04-08T02:26:43;101574.22;;;-1.08;36.79
60087;BME280;45960;53.630;55.972;2023-04-08T02:27:45;101584.75;;;-1.05;36.61
60087;BME280;45960;53.630;55.972;2023-04-08T02:28:51;101590.84;;;-1.01;36.54
60087;BME280;45960;53.630;55.972;2023-04-08T02:29:56;101588.25;;;-1.00;36.56
60087;BME280;45960;53.630;55.972;2023-04-08T02:30:59;101590.88;;;-0.97;36.58
60087;BME280;45960;53.630;55.972;2023-04-08T02:32:03;101589.13;;;-0.93;36.38
60087;BME280;45960;53.630;55.972;2023-04-08T02:33:05;101587.41;;;-0.91;36.39
60087;BME280;45960;53.630;55.972;2023-04-08T02:34:11;101584.78;;;-0.88;36.26
60087;BME280;45960;53.630;55.972;2023-04-08T02:35:14;101590.06;;;-0.83;36.24
60087;BME280;45960;53.630;55.972;2023-04-08T02:36:16;101590.94;;;-0.80;36.17
60087;BME280;45960;53.630;55.972;2023-04-08T02:37:17;101596.19;;;-0.75;35.83
60087;BME280;45960;53.630;55.972;2023-04-08T02:38:19;101583.06;;;-0.74;35.54
60087;BME280;45960;53.630;55.972;2023-04-08T02:39:20;101580.44;;;-0.71;35.54
60087;BME280;45960;53.630;55.972;2023-04-08T02:40:25;101596.19;;;-0.64;35.48
60087;BME280;45960;53.630;55.972;2023-04-08T02:41:28;101589.22;;;-0.62;35.57
60087;BME280;45960;53.630;55.972;2023-04-08T02:42:30;101590.09;;;-0.59;35.54
60087;BME280;45960;53.630;55.972;2023-04-08T02:43:31;101594.47;;;-0.56;35.66
60087;BME280;45960;53.630;55.972;2023-04-08T02:44:32;101591.88;;;-0.53;35.51
60087;BME280;45960;53.630;55.972;2023-04-08T02:45:43;101589.25;;;-0.50;35.44
60087;BME280;45960;53.630;55.972;2023-04-08T02:46:44;101591.00;;;-0.46;35.33
60087;BME280;45960;53.630;55.972;2023-04-08T02:47:45;101586.59;;;-0.42;35.24
60087;BME280;45960;53.630;55.972;2023-04-08T02:48:46;101590.13;;;-0.37;35.15
60087;BME280;45960;53.630;55.972;2023-04-08T02:49:47;101598.88;;;-0.35;35.16
60087;BME280;45960;53.630;55.972;2023-04-08T02:50:48;101594.50;;;-0.35;35.12
60087;BME280;45960;53.630;55.972;2023-04-08T02:51:49;101584.00;;;-0.33;34.93
60087;BME280;45960;53.630;55.972;2023-04-08T02:52:50;101597.13;;;-0.26;34.88
60087;BME280;45960;53.630;55.972;2023-04-08T02:53:51;101594.50;;;-0.26;34.66
60087;BME280;45960;53.630;55.972;2023-04-08T02:54:52;101591.88;;;-0.23;34.33
60087;BME280;45960;53.630;55.972;2023-04-08T02:55:53;101596.25;;;-0.18;34.46
60087;BME280;45960;53.630;55.972;2023-04-08T02:56:54;101592.75;;;-0.14;34.43
60087;BME280;45960;53.630;55.972;2023-04-08T02:57:55;101598.00;;;-0.11;34.13
60087;BME280;45960;53.630;55.972;2023-04-08T02:58:56;101596.25;;;-0.09;34.02
60087;BME280;45960;53.630;55.972;2023-04-08T02:59:57;101591.00;;;-0.12;34.13
60087;BME280;45960;53.630;55.972;2023-04-08T03:00:58;101602.41;;;-0.03;34.13
60087;BME280;45960;53.630;55.972;2023-04-08T03:02:00;101600.63;;;0.01;34.09
60087;BME280;45960;53.630;55.972;2023-04-08T03:03:01;101602.38;;;0.04;34.01
60087;BME280;45960;53.630;55.972;2023-04-08T03:04:02;101597.13;;;0.05;33.98
60087;BME280;45960;53.630;55.972;2023-04-08T03:05:03;101604.13;;;0.09;34.00
60087;BME280;45960;53.630;55.972;2023-04-08T03:06:05;101603.25;;;0.13;34.02
60087;BME280;45960;53.630;55.972;2023-04-08T03:07:06;101602.38;;;0.14;33.92
60087;BME280;45960;53.630;55.972;2023-04-08T03:08:07;101601.50;;;0.20;34.04
60087;BME280;45960;53.630;55.972;2023-04-08T03:09:08;101587.47;;;0.22;34.09
60087;BME280;45960;53.630;55.972;2023-04-08T03:10:09;101589.22;;;0.27;33.95
60087;BME280;45960;53.630;55.972;2023-04-08T03:11:10;101599.72;;;0.30;33.78
60087;BME280;45960;53.630;55.972;2023-04-08T03:12:11;101597.97;;;0.32;33.72
60087;BME280;45960;53.630;55.972;2023-04-08T03:13:13;101603.22;;;0.35;33.62
60087;BME280;45960;53.630;55.972;2023-04-08T03:14:13;101600.59;;;0.38;33.46
60087;BME280;45960;53.630;55.972;2023-04-08T03:15:15;101597.03;;;0.42;33.42
60087;BME280;45960;53.630;55.972;2023-04-08T03:16:16;101596.19;;;0.46;33.18
60087;BME280;45960;53.630;55.972;2023-04-08T03:17:17;101596.16;;;0.49;33.15
60087;BME280;45960;53.630;55.972;2023-04-08T03:18:18;101598.78;;;0.54;33.05
60087;BME280;45960;53.630;55.972;2023-04-08T03:19:19;101590.03;;;0.56;33.13
60087;BME280;45960;53.630;55.972;2023-04-08T03:20:20;101590.84;;;0.61;33.10
60087;BME280;45960;53.630;55.972;2023-04-08T03:21:21;101597.88;;;0.65;32.89
60087;BME280;45960;53.630;55.972;2023-04-08T03:22:22;101601.38;;;0.71;32.61
60087;BME280;45960;53.630;55.972;2023-04-08T03:23:24;101597.84;;;0.75;32.38
60087;BME280;45960;53.630;55.972;2023-04-08T03:24:25;101596.97;;;0.79;32.16
60087;BME280;45960;53.630;55.972;2023-04-08T03:25:26;101596.91;;;0.83;31.95
60087;BME280;45960;53.630;55.972;2023-04-08T03:26:28;101594.28;;;0.88;31.78
60087;BME280;45960;53.630;55.972;2023-04-08T03:27:29;101599.53;;;0.91;31.67
60087;BME280;45960;53.630;55.972;2023-04-08T03:28:30;101589.00;;;0.89;31.36
60087;BME280;45960;53.630;55.972;2023-04-08T03:29:31;101592.47;;;0.98;31.21
60087;BME280;45960;53.630;55.972;2023-04-08T03:30:33;101599.47;;;1.00;31.27
60087;BME280;45960;53.630;55.972;2023-04-08T03:31:34;101592.47;;;1.04;31.36
60087;BME280;45960;53.630;55.972;2023-04-08T03:32:35;101592.41;;;1.08;31.53
60087;BME280;45960;53.630;55.972;2023-04-08T03:33:36;101591.53;;;1.11;31.42
60087;BME280;45960;53.630;55.972;2023-04-08T03:34:37;101592.41;;;1.13;31.11
60087;BME280;45960;53.630;55.972;2023-04-08T03:35:38;101582.75;;;1.14;31.25
60087;BME280;45960;53.630;55.972;2023-04-08T03:36:39;101586.22;;;1.17;31.10
60087;BME280;45960;53.630;55.972;2023-04-08T03:37:40;101586.22;;;1.22;30.92
60087;BME280;45960;53.630;55.972;2023-04-08T03:38:41;101587.97;;;1.24;31.01
60087;BME280;45960;53.630;55.972;2023-04-08T03:39:42;101583.53;;;1.28;30.89
60087;BME280;45960;53.630;55.972;2023-04-08T03:40:43;101591.41;;;1.34;30.79
60087;BME280;45960;53.630;55.972;2023-04-08T03:41:44;101589.66;;;1.38;30.71
60087;BME280;45960;53.630;55.972;2023-04-08T03:42:45;101583.47;;;1.40;30.54
60087;BME280;45960;53.630;55.972;2023-04-08T03:43:46;101592.19;;;1.45;30.75
60087;BME280;45960;53.630;55.972;2023-04-08T03:44:47;101586.91;;;1.48;30.47
60087;BME280;45960;53.630;55.972;2023-04-08T03:45:48;101589.53;;;1.53;30.36
60087;BME280;45960;53.630;55.972;2023-04-08T03:46:49;101588.63;;;1.55;30.37
60087;BME280;45960;53.630;55.972;2023-04-08T03:47:50;101586.84;;;1.61;30.22
60087;BME280;45960;53.630;55.972;2023-04-08T03:48:51;101590.34;;;1.63;30.17
60087;BME280;45960;53.630;55.972;2023-04-08T03:49:52;101588.53;;;1.68;30.03
60087;BME280;45960;53.630;55.972;2023-04-08T03:50:56;101582.41;;;1.69;29.90
60087;BME280;45960;53.630;55.972;2023-04-08T03:51:57;101579.72;;;1.72;29.84
60087;BME280;45960;53.630;55.972;2023-04-08T03:52:58;101584.06;;;1.76;29.93
60087;BME280;45960;53.630;55.972;2023-04-08T03:53:59;101586.72;;;1.77;30.32
60087;BME280;45960;53.630;55.972;2023-04-08T03:55:01;101581.41;;;1.82;30.05
60087;BME280;45960;53.630;55.972;2023-04-08T03:56:03;101586.66;;;1.85;30.08
60087;BME280;45960;53.630;55.972;2023-04-08T03:57:04;101590.13;;;1.89;29.90
60087;BME280;45960;53.630;55.972;2023-04-08T03:58:05;101589.19;;;1.93;29.85
60087;BME280;45960;53.630;55.972;2023-04-08T03:59:06;101581.28;;;1.94;30.02
60087;BME280;45960;53.630;55.972;2023-04-08T04:00:08;101588.31;;;1.95;30.04
60087;BME280;45960;53.630;55.972;2023-04-08T04:01:12;101586.53;;;1.97;30.25
60087;BME280;45960;53.630;55.972;2023-04-08T04:02:13;101590.00;;;2.03;30.14
60087;BME280;45960;53.630;55.972;2023-04-08T04:03:14;101586.44;;;2.07;29.95
60087;BME280;45960;53.630;55.972;2023-04-08T04:04:16;101588.22;;;2.08;30.00
60087;BME280;45960;53.630;55.972;2023-04-08T04:05:16;101588.19;;;2.11;29.98
60087;BME280;45960;53.630;55.972;2023-04-08T04:06:18;101580.22;;;2.17;29.84
60087;BME280;45960;53.630;55.972;2023-04-08T04:07:19;101582.81;;;2.21;29.85
60087;BME280;45960;53.630;55.972;2023-04-08T04:08:20;101588.03;;;2.26;29.75
60087;BME280;45960;53.630;55.972;2023-04-08T04:09:22;101582.72;;;2.31;29.27
60087;BME280;45960;53.630;55.972;2023-04-08T04:10:23;101586.22;;;2.31;29.15
60087;BME280;45960;53.630;55.972;2023-04-08T04:11:24;101589.69;;;2.36;28.99
60087;BME280;45960;53.630;55.972;2023-04-08T04:12:26;101581.75;;;2.38;29.27
60087;BME280;45960;53.630;55.972;2023-04-08T04:13:27;101584.38;;;2.39;29.71
60087;BME280;45960;53.630;55.972;2023-04-08T04:14:28;101586.06;;;2.43;29.21
60087;BME280;45960;53.630;55.972;2023-04-08T04:15:29;101589.53;;;2.49;29.46
60087;BME280;45960;53.630;55.972;2023-04-08T04:16:30;101588.59;;;2.54;29.22
60087;BME280;45960;53.630;55.972;2023-04-08T04:17:31;101591.19;;;2.59;28.95
60087;BME280;45960;53.630;55.972;2023-04-08T04:18:32;101590.25;;;2.63;28.72
60087;BME280;45960;53.630;55.972;2023-04-08T04:19:33;101597.25;;;2.65;28.57
60087;BME280;45960;53.630;55.972;2023-04-08T04:20:34;101592.84;;;2.66;28.50
60087;BME280;45960;53.630;55.972;2023-04-08T04:21:35;101596.31;;;2.71;28.59
60087;BME280;45960;53.630;55.972;2023-04-08T04:22:37;101592.78;;;2.75;28.35
60087;BME280;45960;53.630;55.972;2023-04-08T04:23:38;101593.59;;;2.79;28.61
60087;BME280;45960;53.630;55.972;2023-04-08T04:24:39;101593.50;;;2.85;28.85
60087;BME280;45960;53.630;55.972;2023-04-08T04:25:40;101597.84;;;2.90;28.78
60087;BME280;45960;53.630;55.972;2023-04-08T04:26:42;101595.16;;;2.95;28.36
60087;BME280;45960;53.630;55.972;2023-04-08T04:27:43;101595.13;;;3.00;28.51
60087;BME280;45960;53.630;55.972;2023-04-08T04:28:44;101595.94;;;3.02;28.49
60087;BME280;45960;53.630;55.972;2023-04-08T04:29:44;101599.41;;;3.07;28.09
60087;BME280;45960;53.630;55.972;2023-04-08T04:30:46;101590.56;;;3.09;28.08
60087;BME280;45960;53.630;55.972;2023-04-08T04:31:47;101591.44;;;3.11;28.07
60087;BME280;45960;53.630;55.972;2023-04-08T04:32:48;101601.00;;;3.20;28.12
60087;BME280;45960;53.630;55.972;2023-04-08T04:33:49;101592.13;;;3.24;27.91
60087;BME280;45960;53.630;55.972;2023-04-08T04:34:50;101597.34;;;3.27;27.49
60087;BME280;45960;53.630;55.972;2023-04-08T04:35:51;101597.31;;;3.30;27.60
60087;BME280;45960;53.630;55.972;2023-04-08T04:36:52;101602.53;;;3.35;27.57
60087;BME280;45960;53.630;55.972;2023-04-08T04:37:53;101593.69;;;3.38;27.46
60087;BME280;45960;53.630;55.972;2023-04-08T04:38:54;101598.88;;;3.44;27.41
60087;BME280;45960;53.630;55.972;2023-04-08T04:39:56;101596.19;;;3.47;27.53
60087;BME280;45960;53.630;55.972;2023-04-08T04:40:57;101595.22;;;3.52;27.71
60087;BME280;45960;53.630;55.972;2023-04-08T04:41:58;101591.63;;;3.58;27.55
60087;BME280;45960;53.630;55.972;2023-04-08T04:42:59;101594.19;;;3.64;27.77
60087;BME280;45960;53.630;55.972;2023-04-08T04:44:00;101595.88;;;3.68;27.63
60087;BME280;45960;53.630;55.972;2023-04-08T04:45:01;101589.69;;;3.69;27.62
60087;BME280;45960;53.630;55.972;2023-04-08T04:46:03;101605.47;;;3.75;27.50
60087;BME280;45960;53.630;55.972;2023-04-08T04:47:06;101593.94;;;3.79;27.50
60087;BME280;45960;53.630;55.972;2023-04-08T04:48:07;101586.88;;;3.80;27.81
60087;BME280;45960;53.630;55.972;2023-04-08T04:49:08;101590.25;;;3.90;27.65
60087;BME280;45960;53.630;55.972;2023-04-08T04:50:10;101596.31;;;3.95;27.42
60087;BME280;45960;53.630;55.972;2023-04-08T04:51:11;101602.44;;;3.98;27.26
60087;BME280;45960;53.630;55.972;2023-04-08T04:52:12;101590.91;;;4.04;26.74
60087;BME280;45960;53.630;55.972;2023-04-08T04:53:13;101594.34;;;4.06;26.78
60087;BME280;45960;53.630;55.972;2023-04-08T04:54:14;101596.94;;;4.12;26.17
60087;BME280;45960;53.630;55.972;2023-04-08T04:55:15;101594.28;;;4.12;26.28
60087;BME280;45960;53.630;55.972;2023-04-08T04:56:16;101590.66;;;4.16;26.10
60087;BME280;45960;53.630;55.972;2023-04-08T04:57:17;101588.88;;;4.18;25.69
60087;BME280;45960;53.630;55.972;2023-04-08T04:58:18;101591.47;;;4.20;25.52
60087;BME280;45960;53.630;55.972;2023-04-08T04:59:19;101594.97;;;4.22;25.32
60087;BME280;45960;53.630;55.972;2023-04-08T05:00:20;101594.91;;;4.26;25.38
60087;BME280;45960;53.630;55.972;2023-04-08T05:01:21;101592.25;;;4.26;25.25
60087;BME280;45960;53.630;55.972;2023-04-08T05:02:22;101585.19;;;4.29;25.30
60087;BME280;45960;53.630;55.972;2023-04-08T05:03:23;101584.19;;;4.33;25.42
60087;BME280;45960;53.630;55.972;2023-04-08T05:04:24;101578.84;;;4.37;25.21
60087;BME280;45960;53.630;55.972;2023-04-08T05:05:27;101584.88;;;4.42;25.11
60087;BME280;45960;53.630;55.972;2023-04-08T05:06:28;101588.31;;;4.49;25.13
60087;BME280;45960;53.630;55.972;2023-04-08T05:07:30;101586.44;;;4.54;24.93
60087;BME280;45960;53.630;55.972;2023-04-08T05:08:31;101583.75;;;4.57;24.82
60087;BME280;45960;53.630;55.972;2023-04-08T05:09:32;101584.53;;;4.62;24.74
60087;BME280;45960;53.630;55.972;2023-04-08T05:10:33;101584.47;;;4.65;24.61
60087;BME280;45960;53.630;55.972;2023-04-08T05:11:35;101577.31;;;4.70;24.37
60087;BME280;45960;53.630;55.972;2023-04-08T05:12:36;101582.53;;;4.74;24.31
60087;BME280;45960;53.630;55.972;2023-04-08T05:13:38;101577.19;;;4.77;24.44
60087;BME280;45960;53.630;55.972;2023-04-08T05:14:39;101571.81;;;4.80;24.28
60087;BME280;45960;53.630;55.972;2023-04-08T05:15:42;101570.88;;;4.82;24.32
60087;BME280;45960;53.630;55.972;2023-04-08T05:16:43;101570.88;;;4.82;24.36
60087;BME280;45960;53.630;55.972;2023-04-08T05:17:44;101580.53;;;4.85;24.41
60087;BME280;45960;53.630;55.972;2023-04-08T05:18:46;101578.66;;;4.90;24.57
60087;BME280;45960;53.630;55.972;2023-04-08T05:19:47;101577.66;;;4.96;24.38
60087;BME280;45960;53.630;55.972;2023-04-08T05:20:48;101585.44;;;5.03;24.68
60087;BME280;45960;53.630;55.972;2023-04-08T05:21:49;101584.38;;;5.12;25.14
60087;BME280;45960;53.630;55.972;2023-04-08T05:22:50;101580.63;;;5.21;25.29
60087;BME280;45960;53.630;55.972;2023-04-08T05:23:51;101582.25;;;5.28;25.10
60087;BME280;45960;53.630;55.972;2023-04-08T05:24:53;101582.09;;;5.35;24.52
60087;BME280;45960;53.630;55.972;2023-04-08T05:25:54;101582.81;;;5.42;24.53
60087;BME280;45960;53.630;55.972;2023-04-08T05:26:56;101580.00;;;5.48;24.17